Time;durP1;ratioP1;P1;durP2;ratioP2;P2;SDS_P1;SDS_P2;PMS_P1;PMS_P2;Temp;Humidity;BMP_temperature;BMP_pressure;BME280_temperature;BME280_humidity;BME280_pressure;Samples;Min_cycle;Max_cycle;Signal;HPM_P1;HPM_P2
2022/08/20 00:01:33;;;;;;;7.13;5.63;;;19.50;99.90;;;;;;5124168;27;20054;-74
2022/08/20 00:03:59;;;;;;;8.98;5.53;;;19.50;99.90;;;;;;5126733;27;20046;-74
2022/08/20 00:06:26;;;;;;;6.80;5.85;;;19.50;99.90;;;;;;5125418;27;20493;-74
2022/08/20 00:08:51;;;;;;;8.10;5.35;;;19.50;99.90;;;;;;5117259;27;20101;-74
2022/08/20 00:11:21;;;;;;;8.20;5.63;;;19.40;99.90;;;;;;5131019;27;20906;-73
2022/08/20 00:13:50;;;;;;;11.00;5.47;;;19.40;99.90;;;;;;5126899;27;20199;-74
2022/08/20 00:16:19;;;;;;;7.10;5.43;;;19.40;99.90;;;;;;5110945;27;20450;-74
2022/08/20 00:18:45;;;;;;;7.20;5.65;;;19.40;99.90;;;;;;5127736;27;20077;-74
2022/08/20 00:21:13;;;;;;;7.88;5.05;;;19.40;99.90;;;;;;5129120;27;20038;-73
2022/08/20 00:23:42;;;;;;;8.50;4.80;;;19.00;99.90;;;;;;5117080;27;20046;-74
2022/08/20 00:26:09;;;;;;;7.60;5.57;;;19.30;99.90;;;;;;5135539;27;20054;-74
2022/08/20 00:28:35;;;;;;;7.70;6.45;;;19.30;99.90;;;;;;5114807;27;20062;-74
2022/08/20 00:31:08;;;;;;;8.88;5.88;;;19.30;99.90;;;;;;5125064;27;20073;-74
2022/08/20 00:33:34;;;;;;;10.70;6.38;;;19.20;99.90;;;;;;5127938;27;20083;-74
2022/08/20 00:36:05;;;;;;;10.18;6.25;;;19.10;99.90;;;;;;5134364;27;20684;-74
2022/08/20 00:38:35;;;;;;;8.20;5.57;;;19.10;99.90;;;;;;5130504;27;20082;-74
2022/08/20 00:41:01;;;;;;;9.90;5.85;;;19.10;99.90;;;;;;5112142;27;20038;-74
2022/08/20 00:43:46;;;;;;;8.27;5.50;;;19.00;99.90;;;;;;5131570;27;20055;-74
2022/08/20 00:46:19;;;;;;;6.90;4.53;;;19.00;99.90;;;;;;5133901;27;20624;-74
2022/08/20 00:48:48;;;;;;;8.18;6.05;;;18.90;99.90;;;;;;5114587;27;20107;-74
2022/08/20 00:51:29;;;;;;;6.05;5.38;;;18.90;99.90;;;;;;5103201;27;20047;-74
2022/08/20 00:54:05;;;;;;;7.32;5.00;;;18.90;99.90;;;;;;5131500;27;20087;-74
2022/08/20 00:56:32;;;;;;;8.85;5.38;;;18.90;99.90;;;;;;5139449;27;20038;-74
2022/08/20 00:58:59;;;;;;;11.85;6.50;;;18.90;99.90;;;;;;5139207;27;20047;-74
2022/08/20 01:01:25;;;;;;;6.57;5.63;;;18.90;99.90;;;;;;5124418;27;20110;-74
2022/08/20 01:03:55;;;;;;;9.00;5.43;;;18.90;99.90;;;;;;5114637;27;20057;-74
2022/08/20 01:06:23;;;;;;;8.48;5.38;;;18.90;99.90;;;;;;5134807;27;20057;-74
2022/08/20 01:08:49;;;;;;;9.30;5.13;;;18.90;99.90;;;;;;5128867;27;20116;-74
2022/08/20 01:11:16;;;;;;;10.40;5.07;;;18.90;99.90;;;;;;5129619;27;20051;-74
2022/08/20 01:13:44;;;;;;;6.10;4.32;;;18.90;99.90;;;;;;5138704;27;20486;-74
2022/08/20 01:16:18;;;;;;;8.15;5.25;;;18.90;99.90;;;;;;5135348;27;20042;-74
2022/08/20 01:18:47;;;;;;;9.85;5.63;;;18.90;99.90;;;;;;5129263;27;20042;-74
2022/08/20 01:21:13;;;;;;;10.38;5.38;;;18.80;99.90;;;;;;5136058;27;20047;-74
2022/08/20 01:23:55;;;;;;;7.88;4.63;;;18.80;99.90;;;;;;5135547;27;20059;-75
2022/08/20 01:26:29;;;;;;;6.82;4.72;;;18.80;99.90;;;;;;5135202;27;20051;-75
2022/08/20 01:29:06;;;;;;;11.38;5.10;;;18.80;99.90;;;;;;5131344;27;20117;-74
2022/08/20 01:31:36;;;;;;;6.53;4.15;;;18.70;99.90;;;;;;5126780;27;20057;-74
2022/08/20 01:34:04;;;;;;;9.27;4.20;;;18.70;99.90;;;;;;5125670;27;20444;-74
2022/08/20 01:36:44;;;;;;;9.20;5.43;;;18.80;99.90;;;;;;5136646;27;20047;-74
2022/08/20 01:39:12;;;;;;;8.07;5.13;;;18.70;99.90;;;;;;5130574;27;20047;-74
2022/08/20 01:42:06;;;;;;;10.25;5.60;;;18.70;99.90;;;;;;5120880;27;20047;-74
2022/08/20 01:44:33;;;;;;;10.07;5.05;;;18.70;99.90;;;;;;5123967;27;20047;-74
2022/08/20 01:47:11;;;;;;;10.95;5.68;;;18.60;99.90;;;;;;5128137;27;20051;-74
2022/08/20 01:49:42;;;;;;;9.82;4.75;;;18.60;99.90;;;;;;5123869;27;20498;-74
2022/08/20 01:52:12;;;;;;;7.72;4.85;;;18.60;99.90;;;;;;5135212;27;20046;-74
2022/08/20 01:54:38;;;;;;;8.77;4.40;;;18.50;99.90;;;;;;5120338;27;20036;-74
2022/08/20 01:57:17;;;;;;;7.03;4.88;;;18.50;99.90;;;;;;5129010;27;20049;-74
2022/08/20 01:59:44;;;;;;;11.43;4.63;;;18.40;99.90;;;;;;5130089;27;21625;-75
2022/08/20 02:02:11;;;;;;;7.05;4.25;;;18.40;99.90;;;;;;5133400;27;20046;-74
2022/08/20 02:04:39;;;;;;;5.60;4.03;;;18.40;99.90;;;;;;5120938;27;20122;-75
2022/08/20 02:07:07;;;;;;;7.63;4.78;;;18.30;99.90;;;;;;5121443;27;20122;-74
2022/08/20 02:09:38;;;;;;;10.80;4.88;;;18.30;99.90;;;;;;5124485;27;20402;-74
2022/08/20 02:12:07;;;;;;;7.13;4.68;;;18.30;99.90;;;;;;5139720;27;20802;-75
2022/08/20 02:14:33;;;;;;;7.93;4.85;;;18.20;99.90;;;;;;5106987;27;20085;-75
2022/08/20 02:16:59;;;;;;;6.53;4.10;;;18.20;99.90;;;;;;5127859;27;20050;-75
2022/08/20 02:19:30;;;;;;;7.53;5.05;;;18.20;99.90;;;;;;5136307;27;20046;-75
2022/08/20 02:22:00;;;;;;;5.07;4.30;;;18.20;99.90;;;;;;5129592;27;20046;-74
2022/08/20 02:24:25;;;;;;;7.60;5.10;;;18.20;99.90;;;;;;5119851;27;20143;-74
2022/08/20 02:26:51;;;;;;;11.13;4.10;;;18.10;99.90;;;;;;5129859;27;20046;-75
2022/08/20 02:29:17;;;;;;;8.55;5.15;;;18.10;99.90;;;;;;5133147;27;20664;-75
2022/08/20 02:31:45;;;;;;;5.72;4.40;;;18.10;99.90;;;;;;5125653;27;20039;-75
2022/08/20 02:34:12;;;;;;;6.30;5.10;;;18.00;99.90;;;;;;5136338;27;20065;-75
2022/08/20 02:36:40;;;;;;;9.68;5.00;;;18.00;99.90;;;;;;5091033;27;20082;-75
2022/08/20 02:39:08;;;;;;;10.82;4.88;;;18.00;99.90;;;;;;5129750;27;20123;-75
2022/08/20 02:41:35;;;;;;;8.43;5.28;;;17.90;99.90;;;;;;5130381;27;20125;-75
2022/08/20 02:44:03;;;;;;;9.00;5.25;;;17.90;99.90;;;;;;5135962;27;20062;-75
2022/08/20 02:46:30;;;;;;;7.05;4.80;;;17.90;99.90;;;;;;5131143;27;20050;-75
2022/08/20 02:48:56;;;;;;;13.60;5.88;;;17.90;99.90;;;;;;5127989;27;20078;-75
2022/08/20 02:51:23;;;;;;;9.57;4.40;;;17.90;99.90;;;;;;5131051;27;20889;-75
2022/08/20 02:53:48;;;;;;;8.30;5.30;;;17.90;99.90;;;;;;5119160;27;20484;-75
2022/08/20 02:56:14;;;;;;;10.95;5.47;;;17.90;99.90;;;;;;5139020;27;20126;-75
2022/08/20 02:58:41;;;;;;;11.23;5.25;;;17.90;99.90;;;;;;5112513;27;20510;-75
2022/08/20 03:01:11;;;;;;;10.48;6.13;;;17.90;99.90;;;;;;5127002;27;20090;-75
2022/08/20 03:03:40;;;;;;;9.45;4.00;;;17.90;99.90;;;;;;5129457;27;20629;-74
2022/08/20 03:06:08;;;;;;;7.22;5.78;;;17.90;99.90;;;;;;5129083;27;20809;-74
2022/08/20 03:08:34;;;;;;;11.48;5.22;;;17.80;99.90;;;;;;5130685;27;20231;-74
2022/08/20 03:11:00;;;;;;;9.85;5.82;;;17.80;99.90;;;;;;5123590;27;20058;-74
2022/08/20 03:13:26;;;;;;;6.28;4.43;;;17.70;99.90;;;;;;5138491;27;20047;-74
2022/08/20 03:15:55;;;;;;;7.95;4.95;;;17.70;99.90;;;;;;5131556;27;20054;-74
2022/08/20 03:18:23;;;;;;;8.57;4.60;;;17.60;99.90;;;;;;5131033;27;20080;-74
2022/08/20 03:20:49;;;;;;;7.70;4.60;;;17.60;99.90;;;;;;5136221;27;20139;-74
2022/08/20 03:23:18;;;;;;;6.93;3.83;;;17.60;99.90;;;;;;5137237;27;20104;-74
2022/08/20 03:25:45;;;;;;;9.82;4.25;;;17.60;99.90;;;;;;5106273;27;20130;-74
2022/08/20 03:28:11;;;;;;;8.77;5.20;;;17.60;99.90;;;;;;5105074;27;20445;-74
2022/08/20 03:30:37;;;;;;;11.82;4.78;;;17.10;99.90;;;;;;5135439;27;20050;-74
2022/08/20 03:33:03;;;;;;;6.32;4.85;;;17.60;99.90;;;;;;5135210;27;20053;-74
2022/08/20 03:35:30;;;;;;;12.75;5.32;;;17.50;99.90;;;;;;5117296;27;20145;-75
2022/08/20 03:37:56;;;;;;;7.50;4.68;;;17.50;99.90;;;;;;5109337;28;20710;-74
2022/08/20 03:40:29;;;;;;;12.15;5.38;;;17.50;99.90;;;;;;5135423;27;20053;-74
2022/08/20 03:42:55;;;;;;;;;;;17.50;99.90;;;;;;5128496;27;20506;-74
2022/08/20 03:45:22;;;;;;;12.90;4.90;;;17.40;99.90;;;;;;5130098;27;19924;-74
2022/08/20 03:47:50;;;;;;;10.85;5.25;;;18.00;99.90;;;;;;5099372;27;20035;-74
2022/08/20 03:50:19;;;;;;;9.38;4.95;;;17.50;99.90;;;;;;5126401;27;20043;-74
2022/08/20 03:52:45;;;;;;;10.68;4.95;;;17.40;99.90;;;;;;5131041;27;20079;-75
2022/08/20 03:55:11;;;;;;;10.32;4.57;;;17.50;99.90;;;;;;5130896;27;20125;-74
2022/08/20 03:57:54;;;;;;;8.73;5.22;;;17.50;99.90;;;;;;5124732;27;20402;-74
2022/08/20 04:00:26;;;;;;;7.43;4.20;;;17.40;99.90;;;;;;5120601;27;20077;-74
2022/08/20 04:02:52;;;;;;;7.13;4.07;;;17.40;99.90;;;;;;5111279;27;20051;-74
2022/08/20 04:05:19;;;;;;;8.23;4.35;;;;;;;;;;5138095;27;20047;-74
2022/08/20 04:07:45;;;;;;;9.15;5.25;;;17.40;99.90;;;;;;5121480;27;20177;-75
2022/08/20 04:10:12;;;;;;;9.48;4.65;;;16.40;99.90;;;;;;5131125;27;20441;-74
2022/08/20 04:12:39;;;;;;;8.98;5.25;;;17.30;99.90;;;;;;5140564;27;20045;-74
2022/08/20 04:15:11;;;;;;;8.02;5.38;;;17.40;99.90;;;;;;5130587;27;20039;-75
2022/08/20 04:17:43;;;;;;;5.40;4.03;;;17.40;99.90;;;;;;5132651;27;20123;-74
2022/08/20 04:20:11;;;;;;;7.95;4.47;;;17.40;99.90;;;;;;5139048;27;20049;-74
2022/08/20 04:22:37;;;;;;;6.93;4.68;;;17.40;99.90;;;;;;5127245;27;20046;-74
2022/08/20 04:25:04;;;;;;;9.60;5.10;;;17.40;99.90;;;;;;5103221;27;20058;-74
2022/08/20 04:27:34;;;;;;;12.15;5.18;;;17.30;99.90;;;;;;5134146;27;20838;-75
2022/08/20 04:30:01;;;;;;;10.15;4.25;;;17.30;99.90;;;;;;5133370;27;20485;-74
2022/08/20 04:32:27;;;;;;;9.05;4.93;;;17.30;99.90;;;;;;5136547;27;20053;-74
2022/08/20 04:34:53;;;;;;;6.68;4.10;;;17.30;99.90;;;;;;5140109;27;20038;-73
2022/08/20 04:37:21;;;;;;;5.50;4.30;;;17.30;99.90;;;;;;5112063;27;20063;-73
2022/08/20 04:40:52;;;;;;;4.18;3.38;;;17.30;99.90;;;;;;5137756;27;20049;-73
2022/08/20 04:42:37;;;;;;;8.27;4.10;;;17.30;99.90;;;;;;5126376;27;20821;-73
2022/08/20 04:45:05;;;;;;;7.95;4.22;;;17.30;99.90;;;;;;5141240;27;20490;-73
2022/08/20 04:47:31;;;;;;;8.70;5.25;;;17.30;99.90;;;;;;5136132;27;20072;-73
2022/08/20 04:50:00;;;;;;;9.93;4.60;;;17.30;99.90;;;;;;5138329;27;20093;-73
2022/08/20 04:52:26;;;;;;;8.30;4.18;;;17.30;99.90;;;;;;5137781;27;20051;-73
2022/08/20 04:54:55;;;;;;;7.70;3.40;;;17.30;99.90;;;;;;5124758;27;20058;-73
2022/08/20 04:57:22;;;;;;;5.53;3.83;;;17.30;99.90;;;;;;5134793;27;20046;-73
2022/08/20 04:59:50;;;;;;;6.57;3.55;;;17.30;99.90;;;;;;5131068;27;20993;-73
2022/08/20 05:02:17;;;;;;;6.93;4.00;;;17.20;99.90;;;;;;5117550;27;20096;-73
2022/08/20 05:04:43;;;;;;;7.93;4.28;;;17.20;99.90;;;;;;5123331;27;20050;-74
2022/08/20 05:07:20;;;;;;;9.52;4.50;;;17.20;99.90;;;;;;5126509;27;20885;-74
2022/08/20 05:09:46;;;;;;;6.97;3.90;;;17.10;99.90;;;;;;5132258;27;20050;-74
2022/08/20 05:12:14;;;;;;;9.18;4.63;;;17.10;99.90;;;;;;5133814;27;20470;-74
2022/08/20 05:14:40;;;;;;;8.98;4.22;;;17.10;99.90;;;;;;5133573;27;20042;-73
2022/08/20 05:17:07;;;;;;;6.32;3.25;;;17.20;99.90;;;;;;5132293;27;20053;-74
2022/08/20 05:19:36;;;;;;;7.45;4.40;;;17.10;99.90;;;;;;5134335;27;20118;-74
2022/08/20 05:22:03;;;;;;;7.97;3.95;;;17.10;99.90;;;;;;5133325;27;20050;-74
2022/08/20 05:24:29;;;;;;;7.32;3.72;;;17.10;99.90;;;;;;5135069;27;20073;-74
2022/08/20 05:26:55;;;;;;;5.20;4.22;;;17.10;99.90;;;;;;5129689;27;20432;-74
2022/08/20 05:29:22;;;;;;;4.53;3.40;;;17.10;99.90;;;;;;5129773;27;20549;-74
2022/08/20 05:31:48;;;;;;;7.60;3.92;;;17.10;99.90;;;;;;5128730;27;20078;-74
2022/08/20 05:34:15;;;;;;;5.25;3.65;;;17.10;99.90;;;;;;5118652;27;20093;-74
2022/08/20 05:36:46;;;;;;;7.47;3.35;;;17.10;99.90;;;;;;5130645;27;20048;-73
2022/08/20 05:39:13;;;;;;;7.50;4.07;;;17.10;99.90;;;;;;5132638;27;20692;-74
2022/08/20 05:41:39;;;;;;;7.97;3.72;;;17.10;99.90;;;;;;5114806;27;20179;-73
2022/08/20 05:44:12;;;;;;;5.97;3.65;;;17.00;99.90;;;;;;5125325;27;20043;-74
2022/08/20 05:46:39;;;;;;;8.70;3.92;;;17.00;99.90;;;;;;5125587;27;20046;-74
2022/08/20 05:49:08;;;;;;;7.00;3.85;;;17.00;99.90;;;;;;5125269;27;20996;-74
2022/08/20 05:51:35;;;;;;;11.10;4.13;;;17.00;99.90;;;;;;5100218;27;20812;-74
2022/08/20 05:54:02;;;;;;;8.05;3.80;;;17.00;99.90;;;;;;5099933;27;20046;-73
2022/08/20 05:56:29;;;;;;;6.22;3.47;;;17.00;99.90;;;;;;5128490;27;20062;-74
2022/08/20 05:58:55;;;;;;;7.53;3.58;;;17.00;99.90;;;;;;5133540;27;20054;-74
2022/08/20 06:01:21;;;;;;;10.07;3.88;;;17.00;99.90;;;;;;5138340;27;20053;-74
2022/08/20 06:06:33;;;;;;;7.00;3.58;;;17.10;99.90;;;;;;5131819;27;20046;-74
2022/08/20 06:08:58;;;;;;;9.60;3.95;;;17.10;99.90;;;;;;5125024;27;20444;-74
2022/08/20 06:11:24;;;;;;;6.05;3.17;;;17.20;99.90;;;;;;5120787;27;20588;-73
2022/08/20 06:13:50;;;;;;;4.85;3.30;;;17.30;99.90;;;;;;5129279;27;20605;-74
2022/08/20 06:16:16;;;;;;;6.25;3.20;;;17.20;99.90;;;;;;5104437;27;20227;-74
2022/08/20 06:18:41;;;;;;;4.68;3.15;;;17.30;99.90;;;;;;5135107;27;20069;-74
2022/08/20 06:21:07;;;;;;;4.78;3.17;;;17.30;99.90;;;;;;5134845;27;20054;-74
2022/08/20 06:23:33;;;;;;;4.95;3.00;;;16.00;99.90;;;;;;5134049;27;20070;-74
2022/08/20 06:25:58;;;;;;;7.25;3.70;;;17.30;99.90;;;;;;5129216;27;20050;-75
2022/08/20 06:28:24;;;;;;;5.25;3.17;;;17.30;99.90;;;;;;5099046;27;20043;-74
2022/08/20 06:30:49;;;;;;;7.45;4.10;;;17.30;99.90;;;;;;5135734;27;20073;-74
2022/08/20 06:33:15;;;;;;;9.55;4.20;;;17.40;99.90;;;;;;5134512;27;20046;-74
2022/08/20 06:35:43;;;;;;;7.38;3.13;;;17.50;99.90;;;;;;5124569;27;20066;-74
2022/08/20 06:38:11;;;;;;;7.20;2.92;;;17.70;99.90;;;;;;5125184;27;20047;-74
2022/08/20 06:40:37;;;;;;;8.60;3.30;;;17.80;99.90;;;;;;5132674;27;20848;-74
2022/08/20 06:43:03;;;;;;;5.50;3.03;;;17.90;99.90;;;;;;5136525;27;20042;-74
2022/08/20 06:45:31;;;;;;;5.00;2.95;;;18.00;99.90;;;;;;5132774;27;20047;-74
2022/08/20 06:48:00;;;;;;;7.03;3.50;;;18.20;99.90;;;;;;5123793;27;20065;-74
2022/08/20 06:50:38;;;;;;;3.75;2.38;;;18.30;99.90;;;;;;5128383;27;20509;-74
2022/08/20 06:53:15;;;;;;;5.72;2.50;;;18.50;99.90;;;;;;5119930;27;20111;-73
2022/08/20 06:55:44;;;;;;;8.13;2.70;;;18.60;99.90;;;;;;5114599;27;20053;-74
2022/08/20 06:58:11;;;;;;;4.60;2.50;;;18.70;99.90;;;;;;5115998;27;20097;-75
2022/08/20 07:00:41;;;;;;;3.50;1.90;;;18.90;99.90;;;;;;5115753;27;20162;-75
2022/08/20 07:03:07;;;;;;;4.88;2.50;;;19.00;99.90;;;;;;5117039;27;20054;-75
2022/08/20 07:05:41;;;;;;;6.78;2.17;;;19.30;99.90;;;;;;5125098;27;20378;-75
2022/08/20 07:08:12;;;;;;;4.20;2.30;;;20.00;99.90;;;;;;5134644;27;20093;-75
2022/08/20 07:10:41;;;;;;;5.55;2.33;;;21.20;99.90;;;;;;5121432;27;20045;-75
2022/08/20 07:13:08;;;;;;;6.25;2.13;;;22.40;99.90;;;;;;5127719;27;20054;-75
2022/08/20 07:15:33;;;;;;;5.32;1.85;;;23.50;99.90;;;;;;5125637;27;20046;-75
2022/08/20 07:18:03;;;;;;;2.88;1.75;;;24.60;99.90;;;;;;5128057;27;20054;-75
2022/08/20 07:20:30;;;;;;;2.28;1.80;;;25.60;99.90;;;;;;5128038;27;20413;-76
2022/08/20 07:22:57;;;;;;;3.17;1.70;;;26.30;99.90;;;;;;5129325;27;20046;-76
2022/08/20 07:25:23;;;;;;;3.40;2.08;;;27.00;99.90;;;;;;5129231;27;20054;-77
2022/08/20 07:27:49;;;;;;;5.75;1.60;;;27.60;99.90;;;;;;5130891;27;20046;-79
2022/08/20 07:33:08;;;;;;;5.68;1.58;;;28.10;99.90;;;;;;5131120;27;20729;-76
2022/08/20 07:35:34;;;;;;;3.75;1.30;;;28.50;99.90;;;;;;5128422;27;20047;-76
2022/08/20 07:38:00;;;;;;;1.48;1.05;;;28.40;99.90;;;;;;5125838;27;20043;-78
2022/08/20 07:40:32;;;;;;;2.40;1.50;;;29.00;99.90;;;;;;5127924;27;20035;-78
2022/08/20 07:42:59;;;;;;;;;;;29.00;99.90;;;;;;5134272;27;20043;-77
2022/08/20 07:45:26;;;;;;;6.63;1.65;;;29.30;91.60;;;;;;5130572;27;19923;-77
2022/08/20 07:47:53;;;;;;;1.80;1.13;;;29.20;99.90;;;;;;5130178;27;20066;-80
2022/08/20 07:50:25;;;;;;;4.78;2.28;;;28.80;99.90;;;;;;5130096;27;20102;-79
2022/08/20 07:52:51;;;;;;;3.22;1.20;;;28.50;99.90;;;;;;5129795;27;20039;-78
2022/08/20 07:55:19;;;;;;;3.15;1.63;;;28.70;99.90;;;;;;5127688;27;20031;-79
2022/08/20 07:57:48;;;;;;;2.42;1.50;;;29.00;99.90;;;;;;5135976;27;20078;-78
2022/08/20 08:00:18;;;;;;;2.08;1.15;;;29.30;99.90;;;;;;5133411;27;20601;-78
2022/08/20 08:02:43;;;;;;;4.50;1.45;;;29.20;99.90;;;;;;5128976;27;20046;-79
2022/08/20 08:05:09;;;;;;;4.97;1.40;;;29.10;99.90;;;;;;5134217;27;20888;-79
2022/08/20 08:07:36;;;;;;;5.32;1.52;;;29.10;99.90;;;;;;5113495;27;20070;-80
2022/08/20 08:10:05;;;;;;;3.33;1.10;;;29.10;99.90;;;;;;5110342;27;20054;-78
2022/08/20 08:12:41;;;;;;;3.28;1.15;;;28.50;99.90;;;;;;5135611;27;20050;-81
2022/08/20 08:15:14;;;;;;;3.22;1.50;;;28.10;94.10;;;;;;5135886;27;20082;-81
2022/08/20 08:17:40;;;;;;;;;;;28.00;99.90;;;;;;5134364;27;20046;-79
2022/08/20 08:20:07;;;;;;;2.22;0.80;;;28.10;85.30;;;;;;5135945;27;20017;-79
2022/08/20 08:22:33;;;;;;;2.65;1.20;;;29.10;99.90;;;;;;5131136;27;20047;-80
2022/08/20 08:25:01;;;;;;;2.22;0.82;;;29.60;99.90;;;;;;5135025;27;20055;-78
2022/08/20 08:27:31;;;;;;;4.00;1.35;;;29.80;99.90;;;;;;5132050;27;20050;-81
2022/08/20 08:29:58;;;;;;;3.95;1.33;;;30.30;97.60;;;;;;5130313;27;20062;-79
2022/08/20 08:32:25;;;;;;;3.88;1.15;;;30.60;99.90;;;;;;5129657;27;20122;-81
2022/08/20 08:34:51;;;;;;;2.38;1.50;;;30.80;99.90;;;;;;5133016;27;20747;-78
2022/08/20 08:37:16;;;;;;;2.95;1.05;;;30.70;99.90;;;;;;5129815;27;20044;-78
2022/08/20 08:39:42;;;;;;;2.58;1.25;;;30.70;99.90;;;;;;5132569;27;20937;-81
2022/08/20 08:42:26;;;;;;;4.55;1.42;;;30.70;99.70;;;;;;5131685;27;20454;-78
2022/08/20 08:44:52;;;;;;;3.67;1.23;;;30.00;80.20;;;;;;5137348;27;20039;-79
2022/08/20 08:47:31;;;;;;;1.45;0.90;;;30.00;99.60;;;;;;5134432;27;21594;-78
2022/08/20 08:49:57;;;;;;;2.70;1.20;;;29.60;83.40;;;;;;5132967;27;20046;-78
2022/08/20 08:52:27;;;;;;;3.17;1.45;;;29.90;99.00;;;;;;5116665;27;20047;-80
2022/08/20 08:54:57;;;;;;;6.68;1.75;;;30.30;97.00;;;;;;5136891;27;20046;-80
2022/08/20 08:57:23;;;;;;;2.58;1.00;;;30.20;91.20;;;;;;5136048;27;20043;-80
2022/08/20 09:00:13;;;;;;;1.63;0.82;;;30.10;92.30;;;;;;5135017;27;20085;-80
2022/08/20 09:02:41;;;;;;;4.18;1.27;;;30.40;77.80;;;;;;5132736;27;20034;-78
2022/08/20 09:05:16;;;;;;;4.30;1.30;;;30.40;90.30;;;;;;5136204;27;20061;-79
2022/08/20 09:07:46;;;;;;;1.33;1.00;;;30.00;75.60;;;;;;5131128;27;20071;-79
2022/08/20 09:10:13;;;;;;;2.90;1.20;;;29.20;87.50;;;;;;5130508;27;20460;-79
2022/08/20 09:12:38;;;;;;;1.88;0.85;;;29.70;86.50;;;;;;5135364;27;20043;-80
2022/08/20 09:15:05;;;;;;;2.92;0.90;;;29.80;84.80;;;;;;5107987;27;20049;-80
2022/08/20 09:17:30;;;;;;;1.88;0.90;;;29.90;83.80;;;;;;5131690;27;20039;-78
2022/08/20 09:19:56;;;;;;;4.47;0.93;;;30.40;84.20;;;;;;5136646;27;20052;-78
2022/08/20 09:22:24;;;;;;;2.30;1.02;;;29.60;78.90;;;;;;5134362;27;20138;-80
2022/08/20 09:24:50;;;;;;;2.03;0.98;;;29.30;82.90;;;;;;5137253;27;20063;-79
2022/08/20 09:27:17;;;;;;;1.95;1.10;;;29.40;82.70;;;;;;5136024;27;20061;-80
2022/08/20 09:29:43;;;;;;;5.07;1.40;;;29.90;82.60;;;;;;5134885;27;20733;-81
2022/08/20 09:32:16;;;;;;;2.70;1.10;;;30.40;81.20;;;;;;5135093;27;20077;-81
2022/08/20 09:34:44;;;;;;;2.58;0.93;;;30.20;76.50;;;;;;5127536;27;20045;-81
2022/08/20 09:37:10;;;;;;;3.97;1.27;;;30.20;77.70;;;;;;5133101;27;20053;-79
2022/08/20 09:39:36;;;;;;;3.65;1.30;;;30.30;79.70;;;;;;5132861;27;20051;-78
2022/08/20 09:42:10;;;;;;;4.90;1.52;;;30.60;79.30;;;;;;5124124;27;20865;-80
2022/08/20 09:44:36;;;;;;;3.38;1.38;;;30.70;72.50;;;;;;5129810;27;20035;-78
2022/08/20 09:47:03;;;;;;;3.67;1.67;;;29.90;77.50;;;;;;5132106;27;20057;-80
2022/08/20 09:49:28;;;;;;;2.53;1.35;;;28.90;78.00;;;;;;5135243;27;20047;-78
2022/08/20 09:51:55;;;;;;;2.60;1.17;;;29.10;77.50;;;;;;5113575;27;20772;-80
2022/08/20 09:54:21;;;;;;;2.47;1.10;;;29.60;77.70;;;;;;5136990;27;20387;-78
2022/08/20 09:56:47;;;;;;;2.22;0.93;;;29.90;77.90;;;;;;5138269;27;20074;-78
2022/08/20 09:59:14;;;;;;;2.75;1.05;;;30.40;76.90;;;;;;5124773;27;20047;-78
2022/08/20 10:01:40;;;;;;;3.15;1.05;;;30.90;74.20;;;;;;5128783;27;20044;-78
2022/08/20 10:04:06;;;;;;;1.95;1.40;;;31.10;76.40;;;;;;5128573;27;21126;-80
2022/08/20 10:06:38;;;;;;;2.63;1.30;;;30.70;75.50;;;;;;5115525;27;20095;-80
2022/08/20 10:09:04;;;;;;;1.42;1.10;;;29.30;70.10;;;;;;5135337;27;20779;-80
2022/08/20 10:11:29;;;;;;;3.08;1.20;;;28.60;75.80;;;;;;5118104;27;20046;-76
2022/08/20 10:13:55;;;;;;;1.80;1.20;;;27.80;77.50;;;;;;5122442;27;20043;-80
2022/08/20 10:16:21;;;;;;;2.35;1.20;;;27.30;78.40;;;;;;5116716;27;20051;-80
2022/08/20 10:18:48;;;;;;;3.08;1.60;;;26.80;78.80;;;;;;5111499;27;20049;-79
2022/08/20 10:21:14;;;;;;;2.03;1.10;;;26.50;77.80;;;;;;5107310;27;20046;-79
2022/08/20 10:23:40;;;;;;;3.58;1.20;;;27.20;77.30;;;;;;5121233;27;20089;-79
2022/08/20 10:26:07;;;;;;;2.67;1.25;;;27.40;77.40;;;;;;5131701;27;20158;-82
2022/08/20 10:28:34;;;;;;;5.88;2.20;;;28.30;78.00;;;;;;5136736;27;20057;-80
2022/08/20 10:30:59;;;;;;;3.05;1.35;;;29.20;76.70;;;;;;5137404;27;20047;-79
2022/08/20 10:33:25;;;;;;;6.32;1.88;;;30.00;76.00;;;;;;5135916;27;20061;-79
2022/08/20 10:35:51;;;;;;;4.38;1.55;;;30.40;75.90;;;;;;5137921;27;20479;-80
2022/08/20 10:38:16;;;;;;;2.25;1.13;;;29.10;71.00;;;;;;5130601;27;20078;-78
2022/08/20 10:40:42;;;;;;;3.53;1.25;;;27.50;75.00;;;;;;5136506;27;20556;-79
2022/08/20 10:43:07;;;;;;;3.33;1.40;;;27.10;75.10;;;;;;5136413;27;20406;-79
2022/08/20 10:45:33;;;;;;;4.32;1.33;;;26.60;75.40;;;;;;5136727;27;20254;-79
2022/08/20 10:48:00;;;;;;;7.13;1.60;;;26.20;76.80;;;;;;5097966;27;20050;-78
2022/08/20 10:50:26;;;;;;;2.75;1.40;;;26.00;76.80;;;;;;5124746;27;20047;-79
2022/08/20 10:52:51;;;;;;;1.30;1.20;;;26.20;77.30;;;;;;5118230;27;20119;-80
2022/08/20 10:55:17;;;;;;;1.92;1.42;;;26.90;77.90;;;;;;5137157;27;20046;-80
2022/08/20 10:57:44;;;;;;;4.88;1.30;;;26.80;75.60;;;;;;5133663;27;20489;-76
2022/08/20 11:00:12;;;;;;;4.60;1.55;;;27.00;77.00;;;;;;5119572;27;20043;-78
2022/08/20 11:02:38;;;;;;;4.65;1.40;;;26.70;76.20;;;;;;5132598;27;20054;-76
2022/08/20 11:05:05;;;;;;;4.43;1.88;;;26.30;77.10;;;;;;5127460;27;20043;-76
2022/08/20 11:07:34;;;;;;;3.88;1.15;;;25.90;76.70;;;;;;5123469;27;20035;-77
2022/08/20 11:10:01;;;;;;;7.38;1.88;;;25.40;76.60;;;;;;5125828;27;20039;-76
2022/08/20 11:12:27;;;;;;;2.90;1.60;;;25.20;77.00;;;;;;5130317;27;20099;-76
2022/08/20 11:14:53;;;;;;;7.20;1.55;;;24.90;77.20;;;;;;5125767;27;20108;-76
2022/08/20 11:17:32;;;;;;;2.22;1.30;;;24.50;76.20;;;;;;5131080;27;20053;-76
2022/08/20 11:19:59;;;;;;;4.35;1.52;;;24.40;78.00;;;;;;5123907;27;20839;-77
2022/08/20 11:22:25;;;;;;;2.75;1.45;;;24.60;79.50;;;;;;5132939;27;20043;-85
2022/08/20 11:24:51;;;;;;;2.95;1.60;;;24.80;80.00;;;;;;5132057;27;20089;-77
2022/08/20 11:27:30;;;;;;;4.65;2.05;;;25.20;78.50;;;;;;5128956;27;20054;-80
2022/08/20 11:29:56;;;;;;;2.85;1.55;;;25.60;78.10;;;;;;5124245;27;20754;-77
2022/08/20 11:32:23;;;;;;;4.32;2.03;;;25.70;76.20;;;;;;5124644;27;20070;-78
2022/08/20 11:34:49;;;;;;;4.38;1.48;;;25.90;74.80;;;;;;5130189;27;20070;-79
2022/08/20 11:37:16;;;;;;;2.25;1.40;;;25.90;75.00;;;;;;5128066;27;20150;-78
2022/08/20 11:39:42;;;;;;;2.88;1.65;;;26.00;76.30;;;;;;5130308;27;20038;-78
2022/08/20 11:42:09;;;;;;;3.42;2.05;;;26.30;75.70;;;;;;5131530;27;20051;-83
2022/08/20 11:44:34;;;;;;;3.47;1.70;;;26.20;74.40;;;;;;5133498;27;20145;-77
2022/08/20 11:47:03;;;;;;;4.57;2.53;;;26.20;75.70;;;;;;5130880;27;20043;-79
2022/08/20 11:49:30;;;;;;;3.03;1.45;;;26.30;75.60;;;;;;5130483;27;20504;-78
2022/08/20 11:51:56;;;;;;;4.43;2.08;;;26.20;76.80;;;;;;5127889;27;20078;-76
2022/08/20 11:54:22;;;;;;;4.60;1.52;;;25.90;73.60;;;;;;5129831;27;20043;-78
2022/08/20 11:56:48;;;;;;;7.45;2.63;;;25.90;75.20;;;;;;5132343;27;20039;-76
2022/08/20 11:59:15;;;;;;;3.03;1.77;;;26.00;75.30;;;;;;5132839;27;20068;-79
2022/08/20 12:01:41;;;;;;;3.35;1.83;;;26.10;75.20;;;;;;5132446;27;20039;-77
2022/08/20 12:04:07;;;;;;;2.42;1.52;;;26.20;74.70;;;;;;5107876;27;20038;-78
2022/08/20 12:06:33;;;;;;;2.72;1.33;;;26.50;74.40;;;;;;5129984;27;20851;-82
2022/08/20 12:08:59;;;;;;;6.50;2.25;;;26.40;74.30;;;;;;5112490;27;20054;-85
2022/08/20 12:11:25;;;;;;;3.17;1.60;;;26.30;72.50;;;;;;5097051;28;20047;-78
2022/08/20 12:13:51;;;;;;;4.82;1.58;;;26.20;71.90;;;;;;5123846;27;20043;-78
2022/08/20 12:16:17;;;;;;;5.40;1.77;;;26.10;74.00;;;;;;5108760;27;20055;-77
2022/08/20 12:18:43;;;;;;;3.28;1.42;;;26.20;74.50;;;;;;5129050;27;20042;-83
2022/08/20 12:21:10;;;;;;;3.10;1.50;;;26.30;74.90;;;;;;5123294;27;20043;-81
2022/08/20 12:23:35;;;;;;;2.92;1.65;;;26.20;74.60;;;;;;5118480;27;20596;-79
2022/08/20 12:26:02;;;;;;;5.68;2.22;;;25.90;74.70;;;;;;5136372;27;20133;-82
2022/08/20 12:28:31;;;;;;;7.20;1.85;;;25.70;75.40;;;;;;5117556;27;20038;-79
2022/08/20 12:30:57;;;;;;;3.55;1.65;;;25.60;73.40;;;;;;5126374;27;20186;-79
2022/08/20 12:33:23;;;;;;;4.18;1.98;;;25.30;75.00;;;;;;5116757;27;20342;-80
2022/08/20 12:35:49;;;;;;;12.63;2.63;;;25.50;76.10;;;;;;5117679;27;20084;-80
2022/08/20 12:38:15;;;;;;;2.65;1.60;;;25.80;75.60;;;;;;5123507;27;20120;-79
2022/08/20 12:40:41;;;;;;;7.68;2.13;;;25.80;74.90;;;;;;5131046;27;20047;-80
2022/08/20 12:43:07;;;;;;;2.88;1.60;;;25.80;74.20;;;;;;5134394;27;20046;-79
2022/08/20 12:45:34;;;;;;;2.75;1.63;;;25.90;75.80;;;;;;5120061;27;20078;-81
2022/08/20 12:48:04;;;;;;;3.88;1.95;;;25.80;73.70;;;;;;5115644;27;21053;-80
2022/08/20 12:50:30;;;;;;;5.68;1.95;;;25.90;75.50;;;;;;5126537;27;20043;-77
2022/08/20 12:52:56;;;;;;;18.50;1.90;;;25.90;76.80;;;;;;5122571;27;20043;-77
2022/08/20 12:55:22;;;;;;;4.35;2.05;;;25.90;77.10;;;;;;5133750;27;20042;-79
2022/08/20 12:57:51;;;;;;;5.22;2.08;;;26.00;76.70;;;;;;5117329;27;20078;-78